Roberval, Canada
Current Conditions -  °F | °C
As of 7:00 AM on Saturday 25 Oct 2014 (Local Time) from CYRJ Reporting Station
Broken Clouds Broken Clouds  
Wind Chill: 31°   Ceiling: 7000
Heat Index: 36°   Visibility: 25mi
Dew Point: 28°   Wind: 6mph
Humidity: 75%   Direction: 260°W
Pressure: 29.67"   Gusts: NA
Location:  48.52°N, 72.22°W
Report Text: CYRJ 251100Z 26005KT 25SM BKN070 02/M02 A2967 RMK AC5 SLP053
Loading
Personal Weather Stations






























Interactive Weather Map
Tropical Storm Tracking
New forecast layout! Learn more

10-Day Weather Forecast

Advertisements
Track Severe Weather on mobile